Latest Coastal Weather Observations for Merimbula

IDN60701

Issued at 5:11 pm EST Wednesday 29 June 2016 (issued every 10 minutes, with the page automatically refreshed every 10 minutes)

About coastal observations | Map of coastal stations | Coastal observations for NSW | Marine services | Other Formats
Station Details ID: 069147 Name: MERIMBULA AIRPORT AWS Lat: -36.91 Lon: 149.90 Height: 1.5 m
Data from the previous 72 hours. | See also: Recent months at Merimbula
Date/Time
EST
Temp
°C
Wind Pressure Rain since
9am
mm
Weather Cloud Vis
km
Sea
Height
m
Swell
Dir  Spd
kts
Gust
kts
hPa Trend Height
m
Period
s
Dir
29/05:00pm 12.2 NW 1 5 1024.6 - 0.0 - Partly cloudy 10 - - - -
29/04:30pm 13.9 NE 4 5 1024.5 - 0.0 - Partly cloudy 10 - - - -
29/04:00pm 14.9 NE 5 6 1024.6 - 0.0 - - 10 - - - -
29/03:30pm 17.0 ENE 5 8 1024.5 - 0.0 - - 10 - - - -
29/03:00pm 17.3 E 5 8 1024.5 - 0.0 - - 10 - - - -
29/02:30pm 17.3 ENE 6 9 1024.4 - 0.0 - - 10 - - - -
29/02:00pm 18.2 E 5 6 1024.5 - 0.0 - - 10 - - - -
29/01:30pm 18.5 ESE 4 6 1024.8 - 0.0 - - 10 - - - -
29/01:00pm 17.9 W 5 8 1025.0 - 0.0 - - 10 - - - -
29/12:30pm 17.9 W 4 8 1025.4 - 0.0 - - 10 - - - -
29/12:00pm 17.7 NW 4 7 1025.9 - 0.0 - - 10 - - - -
29/11:30am 16.7 WNW 3 5 1026.4 - 0.0 - - 10 - - - -
29/11:00am 15.9 NW 5 6 1026.8 - 0.0 - - 10 - - - -
29/10:30am 15.3 NW 4 6 1027.3 - 0.0 - - 10 - - - -
29/10:00am 14.3 WSW 6 8 1027.5 - 0.0 - - 10 - - - -
29/09:30am 12.6 W 4 6 1027.5 - 0.0 - - 10 - - - -
29/09:00am 11.2 W 5 8 1027.3 - 0.0 - - 10 - - - -
29/08:30am 8.7 WNW 4 5 1027.2 - 0.0 - - 10 - - - -
29/08:00am 6.3 NW 5 5 1027.2 - 0.0 - - 10 - - - -
29/07:30am 5.2 WNW 6 8 1026.8 - 0.0 - - 10 - - - -
29/07:00am 4.9 W 3 4 1026.6 - 0.0 - - 10 - - - -
29/06:30am 5.7 NW 4 5 1026.4 - 0.0 - - 10 - - - -
29/06:00am 6.2 NW 6 7 1026.3 - 0.0 - - 10 - - - -
29/05:30am 6.2 WNW 3 6 1025.9 - 0.0 - - 10 - - - -
29/05:00am 6.6 NNE 2 6 1025.7 - 0.0 - - 10 - - - -
29/04:30am 7.3 W 7 10 1025.6 - 0.0 - - 10 - - - -
29/04:00am 6.3 WSW 7 9 1025.5 - 0.0 - - 10 - - - -
29/03:30am 4.8 WSW 5 8 1025.5 - 0.0 - - 10 - - - -
29/03:00am 5.4 WNW 4 6 1025.5 - 0.0 - - 10 - - - -
29/02:30am 4.7 NNW 1 4 1025.7 - 0.0 - - 10 - - - -
29/02:00am 5.5 WSW 4 5 1025.7 - 0.0 - - 10 - - - -
29/01:30am 6.0 NW 5 7 1025.9 - 0.0 - - 10 - - - -
29/01:00am 6.6 WSW 4 5 1025.7 - 0.0 - - 10 - - - -
29/12:30am 6.2 NW 6 10 1025.8 - 0.0 - - 10 - - - -
29/12:00am 6.7 CALM 0 3 1025.8 - 0.0 - - 10 - - - -
 
Date/Time
EST
Temp
°C
Wind Pressure Rain since
9am
mm
Weather Cloud Vis
km
Sea
Height
m
Swell
Dir  Spd
kts
Gust
kts
hPa Trend Height
m
Period
s
Dir
28/11:30pm 9.2 W 7 11 1025.8 - 0.0 - - 10 - - - -
28/11:00pm 6.4 NNW 6 8 1025.8 - 0.0 - - 10 - - - -
28/10:30pm 6.2 NNW 5 6 1025.6 - 0.0 - - 10 - - - -
28/10:00pm 5.5 WSW 4 6 1025.6 - 0.0 - - 10 - - - -
28/09:30pm 6.0 SSW 5 6 1025.6 - 0.0 - - 10 - - - -
28/09:00pm 6.4 SW 4 6 1025.5 - 0.0 - - 10 - - - -
28/08:30pm 6.9 WSW 4 5 1025.4 - 0.0 - Partly cloudy 10 - - - -
28/08:00pm 6.8 SW 4 6 1025.2 - 0.0 - Partly cloudy 10 - - - -
28/07:30pm 6.8 WNW 1 6 1025.0 - 0.0 - - 10 - - - -
28/07:00pm 7.4 SW 3 4 1024.7 - 0.0 - - 10 - - - -
28/06:30pm 8.0 W 2 4 1024.4 - 0.0 - - 10 - - - -
28/06:00pm 9.2 WNW 3 5 1024.1 - 0.0 - - 10 - - - -
28/05:30pm 10.6 NW 5 6 1023.8 - 0.0 - Partly cloudy 10 - - - -
28/05:00pm 12.2 NW 5 6 1023.6 - 0.0 - Partly cloudy 10 - - - -
28/04:30pm 14.0 CALM 0 0 1023.3 - 0.0 - Partly cloudy 10 - - - -
28/04:00pm 15.8 CALM 0 0 1023.1 - 0.0 - - 10 - - - -
28/03:30pm 16.9 CALM 0 0 1022.8 - 0.0 - - 10 - - - -
28/03:00pm 16.7 NW 5 7 1022.5 - 0.0 - - 10 - - - -
28/02:30pm 16.9 NW 5 8 1022.2 - 0.0 - - 10 - - - -
28/02:00pm 16.6 WNW 7 10 1022.2 - 0.0 - - 10 - - - -
28/01:30pm 16.7 W 5 10 1022.2 - 0.0 - - 10 - - - -
28/01:00pm 15.9 WSW 7 13 1022.3 - 0.0 - - 10 - - - -
28/12:30pm 15.6 NW 7 11 1022.4 - 0.0 - - 10 - - - -
28/12:00pm 15.3 WNW 7 10 1022.8 - 0.0 - - 10 - - - -
28/11:30am 14.8 W 7 11 1023.1 - 0.0 - - 10 - - - -
28/11:00am 14.2 W 8 13 1023.4 - 0.0 - - 10 - - - -
28/10:30am 13.6 WNW 7 11 1023.6 - 0.0 - - 10 - - - -
28/10:00am 12.1 NW 5 7 1023.5 - 0.0 - - 10 - - - -
28/09:30am 10.6 CALM 0 0 1023.5 - 0.0 - - 10 - - - -
28/09:00am 8.4 CALM 0 0 1023.1 - 0.0 - - 10 - - - -
28/08:30am 6.6 CALM 0 0 1022.6 - 0.0 - - 10 - - - -
28/08:00am 4.3 NW 1 3 1022.4 - 0.0 - - 10 - - - -
28/07:30am 3.9 NW 5 6 1022.0 - 0.0 - - 10 - - - -
28/07:00am 3.9 CALM 0 0 1021.7 - 0.0 - - 10 - - - -
28/06:30am 5.5 NW 6 7 1021.0 - 0.0 - - 10 - - - -
28/06:00am 5.3 NW 6 8 1020.7 - 0.0 - - 10 - - - -
28/05:30am 5.6 NW 8 9 1020.3 - 0.0 - - 10 - - - -
28/05:00am 5.9 WNW 7 9 1020.0 - 0.0 - - 10 - - - -
28/04:30am 6.0 NW 7 9 1019.8 - 0.0 - - 10 - - - -
28/04:00am 5.7 NW 6 8 1019.7 - 0.0 - - 10 - - - -
28/03:30am 5.5 NW 6 7 1019.6 - 0.0 - - 10 - - - -
28/03:00am 4.2 WNW 4 6 1019.4 - 0.0 - - 10 - - - -
28/02:30am 4.2 CALM 0 0 1019.3 - 0.0 - - 10 - - - -
28/02:00am 2.8 CALM 0 0 1019.2 - 0.0 - - 9 - - - -
28/01:30am 2.9 CALM 0 0 1019.0 - 0.0 - - 10 - - - -
28/01:00am 2.9 CALM 0 0 1019.0 - 0.0 - - 10 - - - -
28/12:30am 3.3 CALM 0 0 1018.9 - 0.0 - - 10 - - - -
28/12:00am 3.1 CALM 0 0 1018.9 - 0.0 - - 10 - - - -
 
Date/Time
EST
Temp
°C
Wind Pressure Rain since
9am
mm
Weather Cloud Vis
km
Sea
Height
m
Swell
Dir  Spd
kts
Gust
kts
hPa Trend Height
m
Period
s
Dir
27/11:30pm 2.8 CALM 0 0 1018.7 - 0.0 - - 10 - - - -
27/11:00pm 3.2 CALM 0 0 1018.6 - 0.0 - - 10 - - - -
27/10:30pm 3.4 CALM 0 0 1018.6 - 0.0 - - 10 - - - -
27/10:00pm 4.0 CALM 0 0 1018.2 - 0.0 - - 10 - - - -
27/09:30pm 4.0 CALM 0 0 1018.2 - 0.0 - - 10 - - - -
27/09:00pm 4.0 CALM 0 0 1018.1 - 0.0 - - 10 - - - -
27/08:30pm 4.3 CALM 0 0 1017.9 - 0.0 - - 10 - - - -
27/08:00pm 4.9 CALM 0 0 1017.9 - 0.0 - - 10 - - - -
27/07:30pm 5.2 CALM 0 0 1017.7 - 0.0 - - 10 - - - -
27/07:00pm 5.4 W 1 4 1017.5 - 0.0 - - 10 - - - -
27/06:30pm 7.0 WNW 4 5 1017.2 - 0.0 - - 10 - - - -
27/06:00pm 6.8 CALM 0 0 1017.0 - 0.0 - Cloudy 10 - - - -
27/05:30pm 8.5 CALM 0 0 1016.6 - 0.0 - - 10 - - - -
27/05:00pm 9.8 WSW 1 4 1016.1 - 0.0 - - 10 - - - -
27/04:30pm 10.6 S 3 5 1015.5 - 0.0 - - 10 - - - -
27/04:00pm 11.1 S 4 6 1015.1 - 0.0 - - 10 - - - -
27/03:30pm 11.6 S 5 8 1014.8 - 0.0 - - 10 - - - -
27/03:00pm 11.9 SSW 5 6 1014.6 - 0.0 - Cloudy 10 - - - -
27/02:30pm 12.2 S 4 6 1014.3 - 0.0 - - 10 - - - -
27/02:00pm 12.7 SW 6 10 1014.1 - 0.0 - - 10 - - - -
27/01:30pm 12.9 SSW 7 10 1014.3 - 0.0 - - 10 - - - -
27/01:00pm 12.8 SW 5 9 1014.5 - 0.0 - - 10 - - - -
27/12:30pm 12.6 SW 7 9 1014.7 - 0.0 - - 10 - - - -
27/12:00pm 12.9 SW 7 9 1015.0 - 0.0 - Partly cloudy 10 - - - -
27/11:30am 12.0 WSW 3 6 1015.4 - 0.0 - - 10 - - - -
27/11:00am 11.7 W 4 6 1015.6 - 0.0 - - 10 - - - -
27/10:30am 11.5 W 6 8 1015.7 - 0.0 - - 10 - - - -
27/10:00am 10.9 W 6 9 1015.8 - 0.0 - - 10 - - - -
27/09:30am 8.2 W 3 5 1015.8 - 0.0 - - 10 - - - -
27/09:00am 6.3 NW 1 5 1015.7 - 0.0 - Mostly cloudy 10 - - - -
27/08:30am 5.2 CALM 0 0 1015.6 - 0.0 - - 10 - - - -
27/08:00am 5.1 CALM 0 0 1015.7 - 0.0 - - 10 - - - -
27/07:30am 5.1 WSW 3 5 1015.5 - 0.0 - - 10 - - - -
27/07:00am 5.1 CALM 0 0 1015.3 - 0.0 - - 10 - - - -
27/06:30am 5.2 SW 3 5 1015.0 - 0.0 - - 10 - - - -
27/06:00am 5.8 NW 4 5 1014.8 - 0.0 - Cloudy 10 - - - -
27/05:30am 5.6 WSW 2 4 1014.6 - 0.0 - - 10 - - - -
27/05:00am 5.8 SW 4 4 1014.3 - 0.0 - - 10 - - - -
27/04:30am 5.7 SSW 2 4 1014.0 - 0.0 - - 10 - - - -
27/04:00am 6.0 SW 2 4 1014.1 - 0.0 - - 10 - - - -
27/03:30am 6.2 SSW 3 4 1014.5 - 0.0 - - 10 - - - -
27/03:00am 6.0 SSW 4 5 1014.5 - 0.0 - Cloudy 10 - - - -
27/02:30am 5.8 SSW 4 4 1014.7 - 0.0 - - 10 - - - -
27/02:00am 5.7 SW 5 5 1014.8 - 0.0 - - 10 - - - -
27/01:30am 5.2 SW 3 4 1014.7 - 0.0 - - 10 - - - -
27/01:00am 5.3 SW 2 6 1014.7 - 0.0 - - 10 - - - -
27/12:30am 5.3 CALM 0 0 1014.7 - 0.0 - Partly cloudy 10 - - - -
27/12:00am 5.2 CALM 0 0 1015.0 - 0.0 - Cloudy 10 - - - -
 
Date/Time
EST
Temp
°C
Wind Pressure Rain since
9am
mm
Weather Cloud Vis
km
Sea
Height
m
Swell
Dir  Spd
kts
Gust
kts
hPa Trend Height
m
Period
s
Dir
26/11:30pm 5.5 CALM 0 0 1015.2 - 0.0 - - 10 - - - -
26/11:00pm 6.0 CALM 0 0 1015.4 - 0.0 - - 10 - - - -
26/10:30pm 5.9 CALM 0 0 1015.6 - 0.0 - - 10 - - - -
26/10:00pm 6.3 CALM 0 0 1015.8 - 0.0 - - 10 - - - -
26/09:30pm 6.6 CALM 0 0 1016.1 - 0.0 - - 10 - - - -
26/09:00pm 6.3 CALM 0 0 1016.1 - 0.0 - Cloudy 10 - - - -
26/08:30pm 7.3 CALM 0 0 1016.5 - 0.0 - - 10 - - - -
26/08:00pm 7.5 CALM 0 0 1016.7 - 0.0 - - 10 - - - -
26/07:30pm 7.7 CALM 0 0 1016.6 - 0.0 - - 10 - - - -
26/07:00pm 8.5 CALM 0 0 1016.5 - 0.0 - Partly cloudy 10 - - - -
26/06:30pm 9.0 CALM 0 0 1016.5 - 0.0 - Partly cloudy 10 - - - -
26/06:00pm 9.2 W 3 5 1016.2 - 0.0 - Cloudy 10 - - - -
26/05:30pm 9.5 WNW 3 4 1016.0 - 0.0 - - 10 - - - -

Other Formats:

Comma delimited format used in spreadsheet applications
http://www.bom.gov.au/fwo/IDN60701/IDN60701.95929.axf

JavaScript Object Notation format (JSON) in row-major order
http://www.bom.gov.au/fwo/IDN60701/IDN60701.95929.json